Time;durP1;ratioP1;P1;durP2;ratioP2;P2;SDS_P1;SDS_P2;PMS_P1;PMS_P2;Temp;Humidity;BMP_temperature;BMP_pressure;BME280_temperature;BME280_humidity;BME280_pressure;Samples;Min_cycle;Max_cycle;Signal;HPM_P1;HPM_P2
2024/01/13 00:02:20;;;;;;;89.07;22.65;;;-3.60;99.90;;;;;;5028081;28;20040;-71
2024/01/13 00:04:45;;;;;;;93.93;23.17;;;-3.70;99.90;;;;;;5028732;28;20484;-71
2024/01/13 00:07:11;;;;;;;108.90;23.83;;;-3.60;99.90;;;;;;5008968;28;20033;-71
2024/01/13 00:09:37;;;;;;;100.55;21.67;;;-3.50;99.90;;;;;;5017965;28;20056;-69
2024/01/13 00:12:03;;;;;;;92.93;23.38;;;-3.60;99.90;;;;;;5045178;28;20139;-70
2024/01/13 00:14:28;;;;;;;96.15;23.80;;;-3.60;99.90;;;;;;5046882;28;20032;-72
2024/01/13 00:16:54;;;;;;;99.15;23.05;;;-3.70;99.90;;;;;;5047340;28;20040;-70
2024/01/13 00:19:19;;;;;;;93.95;22.23;;;-3.70;99.90;;;;;;5038794;28;20434;-69
2024/01/13 00:21:45;;;;;;;102.55;21.92;;;-3.70;99.90;;;;;;5028327;28;20116;-70
2024/01/13 00:24:11;;;;;;;86.43;21.02;;;-3.70;99.90;;;;;;5027900;28;20029;-77
2024/01/13 00:26:36;;;;;;;94.38;21.13;;;-3.70;99.90;;;;;;5027217;28;20117;-70
2024/01/13 00:29:02;;;;;;;85.22;22.38;;;-3.70;99.90;;;;;;5028919;28;20021;-70
2024/01/13 00:31:28;;;;;;;92.22;23.48;;;-3.70;99.90;;;;;;5027354;28;20706;-70
2024/01/13 00:33:53;;;;;;;95.65;22.55;;;-3.70;99.90;;;;;;5028480;28;20037;-72
2024/01/13 00:36:19;;;;;;;94.15;21.70;;;-3.70;99.90;;;;;;5027589;28;20096;-70
2024/01/13 00:38:45;;;;;;;102.18;24.10;;;-3.80;99.90;;;;;;5028510;28;20030;-70
2024/01/13 00:41:10;;;;;;;107.82;23.70;;;-3.90;99.90;;;;;;5027745;28;20033;-76
2024/01/13 00:43:36;;;;;;;98.65;23.10;;;-3.90;99.90;;;;;;5027434;28;20033;-70
2024/01/13 00:46:03;;;;;;;106.10;25.98;;;-3.90;99.90;;;;;;5028266;28;20036;-70
2024/01/13 00:48:29;;;;;;;99.72;23.75;;;-3.90;99.90;;;;;;5027446;28;20057;-70
2024/01/13 00:50:54;;;;;;;97.50;22.70;;;-3.90;99.90;;;;;;5028031;28;20343;-71
2024/01/13 00:53:20;;;;;;;100.45;24.55;;;-3.90;99.90;;;;;;5027193;28;20045;-73
2024/01/13 00:55:46;;;;;;;110.55;25.40;;;-3.80;99.90;;;;;;5027084;28;20466;-70
2024/01/13 00:58:11;;;;;;;102.38;23.35;;;-3.70;99.90;;;;;;5028045;28;20026;-76
2024/01/13 01:00:37;;;;;;;105.22;24.98;;;-3.80;99.90;;;;;;5027337;28;20029;-70
2024/01/13 01:03:03;;;;;;;94.68;24.52;;;-3.90;99.90;;;;;;5025694;28;20042;-73
2024/01/13 01:05:28;;;;;;;108.28;23.90;;;-3.90;99.90;;;;;;5027371;28;20396;-71
2024/01/13 01:07:54;;;;;;;116.22;26.17;;;-3.90;99.90;;;;;;5028351;28;20018;-70
2024/01/13 01:10:20;;;;;;;107.25;24.55;;;-3.90;99.90;;;;;;5027565;28;20136;-69
2024/01/13 01:12:45;;;;;;;105.93;24.50;;;-3.90;99.90;;;;;;5027765;28;20389;-70
2024/01/13 01:15:11;;;;;;;112.53;25.15;;;-3.80;99.90;;;;;;5026827;28;20064;-76
2024/01/13 01:17:37;;;;;;;91.90;21.98;;;-3.80;99.90;;;;;;5027594;28;20044;-70
2024/01/13 01:20:03;;;;;;;111.63;24.15;;;-3.80;99.90;;;;;;5026111;28;20033;-72
2024/01/13 01:22:29;;;;;;;93.53;21.60;;;-3.90;99.90;;;;;;5025372;28;20037;-70
2024/01/13 01:24:54;;;;;;;104.68;23.95;;;-3.90;99.90;;;;;;5026814;28;20065;-70
2024/01/13 01:27:20;;;;;;;110.20;25.30;;;-4.00;99.90;;;;;;5027118;28;20096;-70
2024/01/13 01:29:45;;;;;;;114.28;24.42;;;-4.00;99.90;;;;;;5027443;28;20025;-70
2024/01/13 01:32:11;;;;;;;103.50;22.45;;;-4.00;99.90;;;;;;5027802;28;20030;-72
2024/01/13 01:34:36;;;;;;;109.82;24.23;;;-4.00;99.90;;;;;;5027644;28;20040;-69
2024/01/13 01:37:02;;;;;;;150.35;27.25;;;-4.00;99.90;;;;;;5026865;28;20036;-70
2024/01/13 01:39:28;;;;;;;137.55;26.98;;;-4.10;99.90;;;;;;5027201;28;20033;-72
2024/01/13 01:41:53;;;;;;;122.20;26.73;;;-4.10;99.90;;;;;;5027523;28;20037;-71
2024/01/13 01:44:19;;;;;;;128.15;25.75;;;-4.10;99.90;;;;;;5026581;28;20057;-70
2024/01/13 01:46:46;;;;;;;121.32;26.08;;;-4.10;99.90;;;;;;5029843;28;20405;-70
2024/01/13 01:49:14;;;;;;;113.85;25.55;;;-4.10;99.90;;;;;;5031194;28;20025;-74
2024/01/13 01:51:40;;;;;;;111.43;24.98;;;-4.10;99.90;;;;;;5030991;28;20124;-70
2024/01/13 01:54:06;;;;;;;112.18;24.35;;;-4.10;99.90;;;;;;5031230;28;20395;-70
2024/01/13 01:56:34;;;;;;;127.13;25.73;;;-4.10;99.90;;;;;;5029736;28;20029;-69
2024/01/13 01:59:01;;;;;;;134.23;26.00;;;-4.10;99.90;;;;;;5030495;28;20036;-70
2024/01/13 02:01:29;;;;;;;249.77;33.42;;;-4.10;99.90;;;;;;5030228;28;20029;-69
2024/01/13 02:03:55;;;;;;;137.10;27.88;;;-4.20;99.90;;;;;;5031123;28;20514;-72
2024/01/13 02:06:20;;;;;;;155.65;28.58;;;-4.20;99.90;;;;;;5030152;28;20112;-70
2024/01/13 02:08:46;;;;;;;118.13;26.60;;;-4.10;99.90;;;;;;5030611;28;20430;-70
2024/01/13 02:11:12;;;;;;;126.03;25.65;;;-4.10;99.90;;;;;;5030475;28;20040;-70
2024/01/13 02:13:42;;;;;;;92.72;22.88;;;-4.10;99.90;;;;;;5030185;28;20033;-72
2024/01/13 02:16:08;;;;;;;111.40;24.52;;;-4.00;99.90;;;;;;5030872;28;20033;-69
2024/01/13 02:18:34;;;;;;;109.45;25.85;;;-4.00;99.90;;;;;;5030095;28;20037;-70
2024/01/13 02:20:59;;;;;;;106.90;25.35;;;-4.00;99.90;;;;;;5031005;28;20107;-70
2024/01/13 02:23:25;;;;;;;119.82;25.80;;;-3.90;99.90;;;;;;5029092;28;20033;-71
2024/01/13 02:25:51;;;;;;;111.72;28.33;;;-3.90;99.90;;;;;;5030690;28;20041;-70
2024/01/13 02:28:17;;;;;;;132.63;25.38;;;-3.80;99.90;;;;;;5029892;28;20021;-76
2024/01/13 02:30:42;;;;;;;116.45;27.17;;;-3.80;99.90;;;;;;5030894;28;20630;-70
2024/01/13 02:33:08;;;;;;;123.80;27.33;;;-3.80;99.90;;;;;;5030975;28;20079;-73
2024/01/13 02:35:33;;;;;;;112.78;25.13;;;-3.80;99.90;;;;;;5029394;28;20037;-70
2024/01/13 02:37:59;;;;;;;110.88;25.55;;;-3.80;99.90;;;;;;5030186;28;20029;-72
2024/01/13 02:40:25;;;;;;;104.25;24.35;;;-3.70;99.90;;;;;;5028842;28;20061;-70
2024/01/13 02:42:50;;;;;;;100.20;24.20;;;-3.70;99.90;;;;;;5030214;28;20466;-70
2024/01/13 02:45:16;;;;;;;120.85;25.80;;;-3.70;99.90;;;;;;5029704;28;20039;-77
2024/01/13 02:47:50;;;;;;;101.57;25.05;;;-3.90;99.90;;;;;;5029937;28;20049;-69
2024/01/13 02:50:16;;;;;;;118.50;25.75;;;-4.00;99.90;;;;;;5030149;28;20029;-75
2024/01/13 02:52:44;;;;;;;117.68;25.90;;;-4.10;99.90;;;;;;5029299;28;20163;-71
2024/01/13 02:55:10;;;;;;;101.45;24.05;;;-4.10;99.90;;;;;;5029827;28;20031;-71
2024/01/13 02:57:35;;;;;;;95.05;22.40;;;-4.10;99.90;;;;;;5029357;28;20025;-72
2024/01/13 03:00:02;;;;;;;83.32;19.92;;;-4.00;99.90;;;;;;5029986;28;20103;-69
2024/01/13 03:02:28;;;;;;;97.72;21.48;;;-4.10;99.90;;;;;;5027656;28;20034;-70
2024/01/13 03:04:53;;;;;;;90.57;19.70;;;-4.10;99.90;;;;;;5028738;28;20039;-71
2024/01/13 03:07:19;;;;;;;76.60;18.77;;;-4.20;99.90;;;;;;5028930;28;20045;-76
2024/01/13 03:09:44;;;;;;;90.47;20.38;;;-4.20;99.90;;;;;;5029183;28;20486;-72
2024/01/13 03:12:10;;;;;;;97.45;22.52;;;-4.10;99.90;;;;;;5029013;28;20033;-72
2024/01/13 03:14:36;;;;;;;103.53;23.63;;;-4.10;99.90;;;;;;5028994;28;20033;-70
2024/01/13 03:17:01;;;;;;;99.28;22.00;;;-4.00;99.90;;;;;;5029402;28;20517;-70
2024/01/13 03:19:29;;;;;;;87.07;20.90;;;-4.00;99.90;;;;;;5029140;28;20026;-70
2024/01/13 03:21:54;;;;;;;91.80;21.02;;;-3.90;99.90;;;;;;5029223;28;20535;-70
2024/01/13 03:24:20;;;;;;;112.75;24.20;;;-3.80;99.90;;;;;;5028113;28;20044;-75
2024/01/13 03:26:45;;;;;;;90.13;20.70;;;-3.90;99.90;;;;;;5029050;28;20045;-70
2024/01/13 03:29:11;;;;;;;107.10;21.33;;;-4.00;99.90;;;;;;5029335;28;20026;-70
2024/01/13 03:31:36;;;;;;;126.88;22.77;;;-4.10;99.90;;;;;;5028517;28;20037;-69
2024/01/13 03:34:02;;;;;;;126.72;22.70;;;-4.20;99.90;;;;;;5029544;28;20064;-70
2024/01/13 03:36:28;;;;;;;93.22;21.73;;;-4.20;99.90;;;;;;5028994;28;20080;-69
2024/01/13 03:38:53;;;;;;;104.20;22.42;;;-4.20;99.90;;;;;;5029296;28;20045;-71
2024/01/13 03:41:25;;;;;;;91.60;21.20;;;-4.20;99.90;;;;;;5029597;28;20062;-75
2024/01/13 03:43:51;;;;;;;92.82;21.48;;;-4.30;99.90;;;;;;5029162;28;20032;-70
2024/01/13 03:46:17;;;;;;;107.80;20.98;;;-4.30;99.90;;;;;;5029655;28;20047;-70
2024/01/13 03:48:43;;;;;;;84.53;20.40;;;-4.30;99.90;;;;;;5027978;28;20041;-72
2024/01/13 03:51:10;;;;;;;100.95;21.73;;;-4.30;99.90;;;;;;5028906;28;20037;-70
2024/01/13 03:53:35;;;;;;;86.22;20.13;;;-4.20;99.90;;;;;;5028564;28;20132;-70
2024/01/13 03:56:08;;;;;;;88.90;16.60;;;-4.20;99.90;;;;;;5027831;28;20112;-70
2024/01/13 03:58:35;;;;;;;69.30;15.18;;;-4.30;99.90;;;;;;5028368;28;20033;-70
2024/01/13 04:01:01;;;;;;;69.20;16.10;;;-4.30;99.90;;;;;;5028519;28;20075;-70
2024/01/13 04:03:26;;;;;;;70.47;15.75;;;-4.40;99.90;;;;;;5026179;28;20061;-70
2024/01/13 04:05:52;;;;;;;70.38;15.77;;;-4.40;99.90;;;;;;5027125;28;20057;-71
2024/01/13 04:08:19;;;;;;;72.15;15.02;;;-4.40;99.90;;;;;;5028415;28;20037;-70
2024/01/13 04:10:45;;;;;;;71.93;13.93;;;-4.30;99.90;;;;;;5028401;28;20029;-71
2024/01/13 04:13:14;;;;;;;54.83;14.63;;;-4.40;99.90;;;;;;5028385;28;20375;-70
2024/01/13 04:15:40;;;;;;;57.40;13.73;;;-4.40;99.90;;;;;;5027555;28;20042;-69
2024/01/13 04:18:06;;;;;;;62.75;14.40;;;-4.40;99.90;;;;;;5028456;28;20036;-70
2024/01/13 04:20:31;;;;;;;58.85;12.90;;;-4.30;99.90;;;;;;5027790;28;20036;-70
2024/01/13 04:22:57;;;;;;;55.63;13.60;;;-4.30;99.90;;;;;;5028426;28;20433;-69
2024/01/13 04:25:23;;;;;;;60.70;14.23;;;-4.30;99.90;;;;;;5028078;28;20037;-76
2024/01/13 04:27:50;;;;;;;64.32;14.68;;;-4.20;99.90;;;;;;5028004;28;20029;-70
2024/01/13 04:30:16;;;;;;;56.55;14.13;;;-4.20;99.90;;;;;;5028397;28;20033;-70
2024/01/13 04:32:42;;;;;;;58.33;13.50;;;-4.10;99.90;;;;;;5027616;28;20034;-70
2024/01/13 04:35:08;;;;;;;58.13;13.88;;;-4.10;99.90;;;;;;5028399;28;20033;-70
2024/01/13 04:37:35;;;;;;;63.95;15.77;;;-4.10;99.90;;;;;;5027193;28;20022;-69
2024/01/13 04:40:00;;;;;;;60.90;14.27;;;-4.20;99.90;;;;;;5028797;28;20079;-70
2024/01/13 04:42:26;;;;;;;57.10;13.57;;;-4.20;99.90;;;;;;5028175;28;20036;-76
2024/01/13 04:44:52;;;;;;;59.65;13.65;;;-4.30;99.90;;;;;;5028182;28;20021;-70
2024/01/13 04:47:18;;;;;;;53.22;13.13;;;-4.30;99.90;;;;;;5028878;28;20061;-69
2024/01/13 04:49:43;;;;;;;54.05;12.35;;;-4.30;99.90;;;;;;5024423;28;20033;-73
2024/01/13 04:52:09;;;;;;;53.58;14.00;;;-4.30;99.90;;;;;;5036419;28;20028;-70
2024/01/13 04:54:34;;;;;;;51.10;12.50;;;-4.30;99.90;;;;;;5036185;28;20072;-70
2024/01/13 04:57:00;;;;;;;53.20;12.80;;;-4.20;99.90;;;;;;5035571;28;20064;-69
2024/01/13 04:59:26;;;;;;;48.55;12.43;;;-4.10;99.90;;;;;;5028451;28;20036;-76
2024/01/13 05:01:52;;;;;;;53.92;13.35;;;-4.00;99.90;;;;;;5030668;28;20033;-70
2024/01/13 05:04:18;;;;;;;54.97;14.35;;;-4.00;99.90;;;;;;5038913;28;20040;-69
2024/01/13 05:06:44;;;;;;;51.55;12.82;;;-4.00;99.90;;;;;;5044159;28;20043;-72
2024/01/13 05:09:10;;;;;;;60.67;14.30;;;-3.90;99.90;;;;;;5031151;28;20042;-70
2024/01/13 05:11:36;;;;;;;47.53;13.05;;;-3.90;99.90;;;;;;5027648;28;20040;-70
2024/01/13 05:14:01;;;;;;;51.65;14.90;;;-3.80;99.90;;;;;;5031264;28;20036;-70
2024/01/13 05:16:27;;;;;;;63.08;15.00;;;-3.90;99.90;;;;;;5028078;28;20037;-76
2024/01/13 05:18:53;;;;;;;55.60;15.82;;;-3.80;99.90;;;;;;5028689;28;20040;-70
2024/01/13 05:21:19;;;;;;;55.58;14.32;;;-3.80;99.90;;;;;;5031307;28;20493;-70
2024/01/13 05:23:45;;;;;;;67.03;14.27;;;-3.80;99.90;;;;;;5035381;28;20033;-71
2024/01/13 05:26:11;;;;;;;64.43;14.30;;;-3.90;99.90;;;;;;5028235;28;20026;-70
2024/01/13 05:28:37;;;;;;;59.47;16.05;;;-4.00;99.90;;;;;;5032635;28;20478;-69
2024/01/13 05:31:03;;;;;;;67.13;13.82;;;-4.10;99.90;;;;;;5031641;28;20041;-70
2024/01/13 05:33:28;;;;;;;56.75;13.35;;;-4.20;99.90;;;;;;5030936;28;20037;-75
2024/01/13 05:35:54;;;;;;;67.55;14.70;;;-4.20;99.90;;;;;;5030888;28;20092;-70
2024/01/13 05:38:20;;;;;;;56.10;14.88;;;-4.30;99.90;;;;;;5031407;28;20053;-70
2024/01/13 05:40:47;;;;;;;62.38;14.48;;;-4.30;99.90;;;;;;5036440;28;20048;-70
2024/01/13 05:43:13;;;;;;;59.70;13.88;;;-4.30;99.90;;;;;;5021394;28;20040;-73
2024/01/13 05:45:39;;;;;;;58.88;13.75;;;-4.30;99.90;;;;;;5035076;28;20033;-70
2024/01/13 05:48:05;;;;;;;63.63;15.52;;;-4.40;99.90;;;;;;5041124;28;20488;-70
2024/01/13 05:50:31;;;;;;;64.63;14.00;;;-4.30;99.90;;;;;;5032788;28;20029;-76
2024/01/13 05:52:56;;;;;;;60.63;13.73;;;-4.30;99.90;;;;;;5050727;28;20055;-69
2024/01/13 05:55:22;;;;;;;59.33;12.45;;;-4.30;99.90;;;;;;5038417;28;20110;-70
2024/01/13 05:57:48;;;;;;;64.78;14.73;;;-4.30;99.90;;;;;;5046214;28;20054;-72
2024/01/13 06:00:14;;;;;;;50.50;11.88;;;-4.40;99.90;;;;;;5041866;28;20498;-71
2024/01/13 06:02:40;;;;;;;56.80;12.32;;;-4.30;99.90;;;;;;5043439;28;20064;-69
2024/01/13 06:05:06;;;;;;;54.35;11.93;;;-4.30;99.90;;;;;;5051003;28;20056;-73
2024/01/13 06:07:32;;;;;;;48.03;11.93;;;-4.30;99.90;;;;;;5031556;28;20025;-76
2024/01/13 06:09:57;;;;;;;59.75;12.27;;;-4.40;99.90;;;;;;5039842;28;20040;-69
2024/01/13 06:12:23;;;;;;;53.70;12.23;;;-4.40;99.90;;;;;;5040148;28;20048;-72
2024/01/13 06:14:49;;;;;;;42.83;11.00;;;-4.50;99.90;;;;;;5047661;28;20124;-70
2024/01/13 06:17:14;;;;;;;48.97;11.95;;;-4.50;99.90;;;;;;5034635;28;20775;-70
2024/01/13 06:19:40;;;;;;;52.97;11.68;;;-4.50;99.90;;;;;;5042223;28;20036;-71
2024/01/13 06:22:06;;;;;;;45.40;12.18;;;-4.50;99.90;;;;;;5038169;28;20025;-70
2024/01/13 06:24:31;;;;;;;51.50;12.00;;;-4.50;99.90;;;;;;5034501;28;20033;-76
2024/01/13 06:26:57;;;;;;;49.33;11.85;;;-4.50;99.90;;;;;;5040380;28;20037;-69
2024/01/13 06:29:22;;;;;;;53.85;12.88;;;-4.50;99.90;;;;;;5030556;28;20040;-70
2024/01/13 06:31:48;;;;;;;47.85;11.32;;;-4.50;99.90;;;;;;5029474;28;20466;-71
2024/01/13 06:34:13;;;;;;;46.53;11.55;;;-4.50;99.90;;;;;;5034932;28;20043;-70
2024/01/13 06:36:39;;;;;;;63.42;13.63;;;-4.50;99.90;;;;;;5049815;28;20037;-70
2024/01/13 06:39:05;;;;;;;63.10;14.10;;;-4.40;99.90;;;;;;5040436;28;20078;-71
2024/01/13 06:41:31;;;;;;;62.88;15.27;;;-4.30;99.90;;;;;;5035926;28;20037;-76
2024/01/13 06:43:57;;;;;;;63.35;15.00;;;-4.30;99.90;;;;;;5038926;28;20112;-70
2024/01/13 06:46:22;;;;;;;64.30;15.20;;;-4.30;99.90;;;;;;5044912;28;20124;-71
2024/01/13 06:48:48;;;;;;;69.38;14.45;;;-4.30;99.90;;;;;;5041206;28;20095;-73
2024/01/13 06:51:14;;;;;;;65.60;14.00;;;-4.20;99.90;;;;;;5024724;28;20029;-70
2024/01/13 06:53:40;;;;;;;48.92;12.65;;;-4.20;99.90;;;;;;5044462;28;20544;-69
2024/01/13 06:56:07;;;;;;;52.08;12.57;;;-4.10;99.90;;;;;;5033043;28;20036;-69
2024/01/13 06:58:33;;;;;;;59.10;14.73;;;-4.10;99.90;;;;;;5037505;28;20033;-77
2024/01/13 07:00:59;;;;;;;49.38;12.43;;;-4.00;99.90;;;;;;5029745;28;20026;-71
2024/01/13 07:03:24;;;;;;;47.20;11.45;;;-4.00;99.90;;;;;;5045994;28;20469;-69
2024/01/13 07:05:50;;;;;;;49.08;12.10;;;-4.10;99.90;;;;;;5031821;28;20545;-71
2024/01/13 07:08:16;;;;;;;45.47;11.23;;;-4.30;99.90;;;;;;5032641;28;20429;-70
2024/01/13 07:10:41;;;;;;;43.58;10.43;;;-4.40;99.90;;;;;;5029606;28;20034;-69
2024/01/13 07:13:07;;;;;;;42.55;11.13;;;-4.40;99.90;;;;;;5023914;28;20369;-70
2024/01/13 07:15:32;;;;;;;43.95;10.27;;;-4.40;99.90;;;;;;5027802;28;20033;-75
2024/01/13 07:18:00;;;;;;;38.33;8.82;;;-4.50;99.90;;;;;;5029211;28;20075;-72
2024/01/13 07:20:26;;;;;;;49.13;10.73;;;-4.50;99.90;;;;;;5029371;28;20076;-70
2024/01/13 07:22:52;;;;;;;50.05;9.98;;;-4.50;99.90;;;;;;5030715;28;20034;-70
2024/01/13 07:25:19;;;;;;;50.80;11.82;;;-4.50;99.90;;;;;;5030545;28;20047;-73
2024/01/13 07:27:44;;;;;;;54.28;12.10;;;-4.60;99.90;;;;;;5030674;28;20029;-71
2024/01/13 07:30:11;;;;;;;44.25;11.02;;;-4.60;99.90;;;;;;5040055;28;20033;-72
2024/01/13 07:32:37;;;;;;;47.78;11.25;;;-4.50;99.90;;;;;;5031606;28;20064;-75
2024/01/13 07:35:03;;;;;;;47.67;11.65;;;-4.40;99.90;;;;;;5029006;28;20065;-72
2024/01/13 07:37:28;;;;;;;56.72;12.23;;;-4.30;99.90;;;;;;5028952;28;20108;-73
2024/01/13 07:39:54;;;;;;;43.63;10.93;;;-4.30;99.90;;;;;;5028809;28;20112;-72
2024/01/13 07:42:20;;;;;;;46.65;11.43;;;-4.30;99.90;;;;;;5028913;28;20491;-72
2024/01/13 07:44:45;;;;;;;52.15;11.15;;;-4.30;99.90;;;;;;5027676;28;20025;-72
2024/01/13 07:47:11;;;;;;;55.58;12.63;;;-4.30;99.90;;;;;;5029077;28;20122;-71
2024/01/13 07:49:37;;;;;;;56.30;13.25;;;-4.40;99.90;;;;;;5027579;28;20029;-75
2024/01/13 07:52:02;;;;;;;54.67;13.32;;;-4.30;99.90;;;;;;5029170;28;20377;-72
2024/01/13 07:54:28;;;;;;;49.25;13.48;;;-4.40;99.90;;;;;;5028870;28;20048;-73
2024/01/13 07:56:54;;;;;;;63.60;14.65;;;-4.30;99.90;;;;;;5027951;28;21024;-72
2024/01/13 07:59:21;;;;;;;73.18;15.27;;;-4.40;99.90;;;;;;5028731;28;20033;-72
2024/01/13 08:01:47;;;;;;;61.90;14.60;;;-4.30;99.90;;;;;;5028267;28;20072;-71
2024/01/13 08:04:14;;;;;;;61.97;15.15;;;-4.30;99.90;;;;;;5028772;28;20080;-72
2024/01/13 08:06:40;;;;;;;59.13;14.80;;;-4.40;99.90;;;;;;5027964;28;20038;-72
2024/01/13 08:09:06;;;;;;;61.45;14.07;;;-4.40;99.90;;;;;;5028369;28;20087;-72
2024/01/13 08:11:32;;;;;;;68.65;15.57;;;-4.30;99.90;;;;;;5028442;28;20029;-71
2024/01/13 08:13:58;;;;;;;67.07;14.85;;;-4.30;99.90;;;;;;5028109;28;20041;-71
2024/01/13 08:16:24;;;;;;;71.20;16.48;;;-4.30;99.90;;;;;;5028719;28;20037;-72
2024/01/13 08:18:49;;;;;;;83.13;16.90;;;-4.30;99.90;;;;;;5027679;28;20437;-71
2024/01/13 08:21:15;;;;;;;90.70;17.98;;;-4.30;99.90;;;;;;5028054;28;20033;-70
2024/01/13 08:23:41;;;;;;;81.65;17.83;;;-4.30;99.90;;;;;;5027825;28;20065;-73
2024/01/13 08:26:06;;;;;;;102.32;19.73;;;-4.30;99.90;;;;;;5028238;28;20032;-69
2024/01/13 08:28:33;;;;;;;102.70;22.13;;;-4.30;99.90;;;;;;5029461;28;20033;-71
2024/01/13 08:30:58;;;;;;;99.22;18.95;;;-4.30;99.90;;;;;;5026900;28;20611;-71
2024/01/13 08:33:24;;;;;;;99.20;20.55;;;-4.20;99.90;;;;;;5027934;28;20033;-69
2024/01/13 08:35:50;;;;;;;98.28;20.02;;;-4.30;99.90;;;;;;5035482;28;20478;-67
2024/01/13 08:38:15;;;;;;;94.07;20.92;;;-4.30;99.90;;;;;;5014044;28;20018;-76
2024/01/13 08:40:41;;;;;;;97.18;21.27;;;-4.20;99.90;;;;;;5026990;28;20029;-71
2024/01/13 08:43:08;;;;;;;97.20;20.30;;;-4.30;99.90;;;;;;5020781;28;20052;-71
2024/01/13 08:45:34;;;;;;;111.22;22.52;;;-4.20;99.90;;;;;;5039094;28;20060;-77
2024/01/13 08:48:00;;;;;;;101.25;20.73;;;-4.20;99.90;;;;;;5017852;28;20053;-74
2024/01/13 08:50:26;;;;;;;85.32;19.10;;;-4.20;99.90;;;;;;5039657;28;20033;-70
2024/01/13 08:52:54;;;;;;;106.05;20.02;;;-4.10;99.90;;;;;;5022552;28;20049;-71
2024/01/13 08:55:21;;;;;;;82.93;18.70;;;-4.10;99.90;;;;;;5029806;28;20034;-71
2024/01/13 08:57:47;;;;;;;91.47;18.45;;;-4.10;99.90;;;;;;5017354;28;20116;-72
2024/01/13 09:00:14;;;;;;;102.75;20.00;;;-4.20;99.90;;;;;;5042630;28;20034;-77
2024/01/13 09:02:40;;;;;;;91.25;20.10;;;-4.10;99.90;;;;;;5029241;28;20532;-79
2024/01/13 09:05:07;;;;;;;87.93;20.13;;;-4.10;99.90;;;;;;5037107;28;20151;-70
2024/01/13 09:07:33;;;;;;;99.35;19.27;;;-4.10;99.90;;;;;;5026379;28;20047;-72
2024/01/13 09:09:59;;;;;;;89.00;19.77;;;-4.10;99.90;;;;;;5036854;28;20675;-72
2024/01/13 09:12:25;;;;;;;95.65;21.70;;;-4.10;99.90;;;;;;5029257;28;20051;-73
2024/01/13 09:14:51;;;;;;;109.43;21.20;;;-4.10;99.90;;;;;;5029531;28;20060;-72
2024/01/13 09:17:16;;;;;;;104.35;20.42;;;-4.10;99.90;;;;;;5035158;28;20456;-73
2024/01/13 09:19:42;;;;;;;88.10;20.27;;;-4.00;99.90;;;;;;5013809;28;20055;-73
2024/01/13 09:22:08;;;;;;;94.72;21.25;;;-4.00;99.90;;;;;;5040001;28;20018;-73
2024/01/13 09:24:33;;;;;;;109.80;20.92;;;-4.00;99.90;;;;;;5024078;28;20030;-71
2024/01/13 09:26:59;;;;;;;100.78;20.58;;;-4.00;99.90;;;;;;5035861;28;20883;-70
2024/01/13 09:29:25;;;;;;;93.43;21.33;;;-4.10;99.90;;;;;;5032565;28;20029;-78
2024/01/13 09:31:50;;;;;;;94.72;19.40;;;-4.10;99.90;;;;;;5042628;28;20570;-73
2024/01/13 09:34:16;;;;;;;122.63;22.17;;;-4.00;99.90;;;;;;5038378;28;20456;-79
2024/01/13 09:36:44;;;;;;;124.57;24.08;;;-4.10;99.90;;;;;;5025371;28;20718;-76
2024/01/13 09:39:11;;;;;;;107.15;23.30;;;-4.20;99.90;;;;;;5048101;28;20078;-74
2024/01/13 09:41:37;;;;;;;124.90;24.50;;;-4.10;99.90;;;;;;5026232;28;20025;-77
2024/01/13 09:44:12;;;;;;;122.97;25.40;;;-4.00;99.90;;;;;;5027323;28;20044;-76
2024/01/13 09:46:38;;;;;;;157.82;32.70;;;-4.00;99.90;;;;;;5025903;28;20038;-76
2024/01/13 09:49:09;;;;;;;129.18;26.67;;;-4.00;99.90;;;;;;5027892;28;20052;-74
2024/01/13 09:51:36;;;;;;;149.85;30.55;;;-4.00;99.90;;;;;;5030132;28;20048;-73
2024/01/13 09:54:31;;;;;;;140.75;27.58;;;-4.00;99.90;;;;;;5012755;28;20064;-75
2024/01/13 09:56:58;;;;;;;181.07;38.63;;;-3.90;99.90;;;;;;4995789;28;20034;-70
2024/01/13 09:59:28;;;;;;;219.93;50.55;;;-4.00;99.90;;;;;;4992571;28;20120;-72
2024/01/13 10:01:54;;;;;;;167.02;35.60;;;-4.00;99.90;;;;;;5003303;28;20030;-75
2024/01/13 10:04:20;;;;;;;153.38;34.03;;;-3.90;99.90;;;;;;5001898;28;20041;-72
2024/01/13 10:06:47;;;;;;;161.80;32.22;;;-3.90;99.90;;;;;;4996370;28;20038;-74
2024/01/13 10:09:14;;;;;;;176.40;34.15;;;-3.90;99.90;;;;;;4998349;28;20058;-76
2024/01/13 10:11:39;;;;;;;164.80;33.88;;;-3.90;99.90;;;;;;4987395;28;20041;-77
2024/01/13 10:14:12;;;;;;;167.60;34.35;;;-4.00;99.90;;;;;;4995375;28;20403;-72
2024/01/13 10:16:37;;;;;;;159.68;33.00;;;-4.10;99.90;;;;;;5000631;28;20640;-77
2024/01/13 10:19:08;;;;;;;181.57;34.90;;;-4.10;99.90;;;;;;4988248;28;20045;-73
2024/01/13 10:21:38;;;;;;;171.55;35.70;;;-4.10;99.90;;;;;;4995795;28;20026;-73
2024/01/13 10:24:04;;;;;;;167.07;32.78;;;-4.00;99.90;;;;;;4995302;28;20063;-76
2024/01/13 10:26:31;;;;;;;186.60;35.67;;;-4.00;99.90;;;;;;5017086;28;20498;-73
2024/01/13 10:28:58;;;;;;;176.15;36.53;;;-3.90;99.90;;;;;;5009884;28;20051;-73
2024/01/13 10:31:24;;;;;;;177.90;33.92;;;-4.00;99.90;;;;;;5021240;28;20025;-76
2024/01/13 10:33:51;;;;;;;190.98;37.05;;;-4.10;99.90;;;;;;5017935;28;20037;-73
2024/01/13 10:36:20;;;;;;;180.05;35.28;;;-4.10;99.90;;;;;;5007259;28;20457;-74
2024/01/13 10:38:46;;;;;;;189.80;36.95;;;-4.00;99.90;;;;;;5019926;28;20025;-78
2024/01/13 10:41:12;;;;;;;177.57;36.13;;;-4.10;99.90;;;;;;5010868;28;20867;-76
2024/01/13 10:43:39;;;;;;;179.30;35.40;;;-4.00;99.90;;;;;;5024463;28;20056;-74
2024/01/13 10:46:13;;;;;;;184.18;35.85;;;-4.00;99.90;;;;;;5031164;28;20040;-71
2024/01/13 10:48:47;;;;;;;185.05;35.03;;;-4.10;99.90;;;;;;5009184;28;20033;-73
2024/01/13 10:51:52;;;;;;;201.13;36.67;;;-4.10;99.90;;;;;;5024241;28;20568;-72
2024/01/13 10:54:19;;;;;;;169.93;35.47;;;-4.20;99.90;;;;;;5019033;28;20053;-73
2024/01/13 10:56:45;;;;;;;187.55;31.83;;;-4.20;99.90;;;;;;5020655;28;20034;-74
2024/01/13 10:59:11;;;;;;;175.50;32.97;;;-4.10;99.90;;;;;;5020862;28;20111;-71
2024/01/13 11:01:39;;;;;;;168.98;32.58;;;-4.20;99.90;;;;;;5030601;28;20040;-70
2024/01/13 11:04:07;;;;;;;159.32;32.25;;;-4.20;99.90;;;;;;5021923;28;20029;-77
2024/01/13 11:06:32;;;;;;;157.20;30.52;;;-4.30;99.90;;;;;;5012359;28;20049;-71
2024/01/13 11:08:59;;;;;;;144.48;30.27;;;-4.30;99.90;;;;;;5022485;28;20312;-75
2024/01/13 11:11:29;;;;;;;172.02;35.15;;;-4.30;99.90;;;;;;5012409;28;20760;-69
2024/01/13 11:13:59;;;;;;;;;;;-4.20;99.90;;;;;;5054162;28;20034;-73
2024/01/13 11:16:28;;;;;;;166.15;30.13;;;-4.20;99.90;;;;;;5023734;28;19923;-72
2024/01/13 11:18:54;;;;;;;159.73;31.02;;;-4.20;99.90;;;;;;5024087;28;20144;-78
2024/01/13 11:21:28;;;;;;;148.23;29.40;;;-4.20;99.90;;;;;;5026286;28;20795;-72
2024/01/13 11:23:54;;;;;;;142.70;29.08;;;-4.10;99.90;;;;;;5015774;28;20103;-75
2024/01/13 11:26:22;;;;;;;163.82;33.67;;;-4.10;99.90;;;;;;5048327;28;20033;-70
2024/01/13 11:28:52;;;;;;;153.57;31.35;;;-4.10;99.90;;;;;;5019708;28;20615;-71
2024/01/13 11:31:36;;;;;;;170.57;33.63;;;-4.00;99.90;;;;;;5027576;28;20073;-74
2024/01/13 11:34:03;;;;;;;150.70;30.75;;;-4.10;99.90;;;;;;5019733;28;20942;-69
2024/01/13 11:36:32;;;;;;;152.15;30.92;;;-4.10;99.90;;;;;;5011639;28;20116;-75
2024/01/13 11:38:59;;;;;;;161.05;32.92;;;-4.20;99.90;;;;;;5046939;28;20787;-71
2024/01/13 11:41:51;;;;;;;189.20;35.33;;;-4.20;99.90;;;;;;5027710;28;20536;-73
2024/01/13 11:44:19;;;;;;;166.02;32.38;;;-4.20;99.90;;;;;;5036690;28;20060;-71
2024/01/13 11:47:11;;;;;;;157.27;31.15;;;-4.30;99.90;;;;;;5021136;28;20642;-77
2024/01/13 11:49:38;;;;;;;157.15;31.15;;;-4.20;99.90;;;;;;5013999;28;20540;-77
2024/01/13 11:52:07;;;;;;;178.68;32.90;;;-4.20;99.90;;;;;;5033268;28;20040;-69
2024/01/13 11:54:35;;;;;;;180.88;31.42;;;-4.30;99.90;;;;;;5018830;28;20088;-73
2024/01/13 11:57:16;;;;;;;126.85;25.25;;;-4.30;99.90;;;;;;5025365;28;20040;-73
2024/01/13 11:59:42;;;;;;;140.98;29.58;;;-4.40;99.90;;;;;;5023238;28;20645;-72
2024/01/13 12:02:09;;;;;;;164.88;33.08;;;-4.40;99.90;;;;;;5006773;28;20034;-69
2024/01/13 12:04:36;;;;;;;140.95;28.75;;;-4.40;99.90;;;;;;5037159;28;20611;-66
2024/01/13 12:07:05;;;;;;;161.63;30.55;;;-4.40;99.90;;;;;;5024742;28;20017;-64
2024/01/13 12:09:31;;;;;;;181.50;31.88;;;-4.40;99.90;;;;;;5023414;28;20501;-69
2024/01/13 12:11:59;;;;;;;165.90;33.20;;;-4.30;99.90;;;;;;5030363;28;20067;-70
2024/01/13 12:14:26;;;;;;;162.75;33.95;;;-4.30;99.90;;;;;;5023152;28;20051;-64
2024/01/13 12:16:53;;;;;;;148.10;30.05;;;-4.30;99.90;;;;;;5028152;28;20053;-68
2024/01/13 12:19:20;;;;;;;169.55;33.28;;;-4.20;99.90;;;;;;5017597;28;20025;-67
2024/01/13 12:21:46;;;;;;;163.82;30.17;;;-4.30;99.90;;;;;;5015086;28;20056;-73